Time;durP1;ratioP1;P1;durP2;ratioP2;P2;SDS_P1;SDS_P2;PMS_P1;PMS_P2;Temp;Humidity;BMP_temperature;BMP_pressure;BME280_temperature;BME280_humidity;BME280_pressure;Samples;Min_cycle;Max_cycle;Signal;HPM_P1;HPM_P2
2022/02/18 00:00:42;;;;;;;8.70;2.15;;;;;;;-149.78;100.00;50440.16;4790199;30;20042;-68
2022/02/18 00:03:09;;;;;;;12.90;2.58;;;;;;;-149.78;100.00;50479.28;4790118;30;20039;-67
2022/02/18 00:05:34;;;;;;;11.13;2.40;;;;;;;-149.78;100.00;50424.50;4790031;30;20047;-68
2022/02/18 00:08:00;;;;;;;9.95;1.95;;;;;;;-149.78;100.00;50459.72;4790069;30;20042;-68
2022/02/18 00:10:25;;;;;;;16.48;2.38;;;;;;;-149.78;100.00;50469.50;4790020;30;20513;-67
2022/02/18 00:12:51;;;;;;;9.32;1.98;;;;;;;-149.78;100.00;50432.31;4789914;30;20066;-68
2022/02/18 00:15:17;;;;;;;10.02;2.42;;;;;;;-149.78;100.00;50428.41;4790159;30;20051;-68
2022/02/18 00:17:43;;;;;;;6.32;1.70;;;;;;;-149.78;100.00;50416.69;4789938;29;20961;-68
2022/02/18 00:20:09;;;;;;;12.40;2.20;;;;;;;-149.78;100.00;50408.84;4789956;30;20468;-68
2022/02/18 00:22:36;;;;;;;10.25;1.75;;;;;;;-149.78;100.00;50440.16;4789751;30;20088;-67
2022/02/18 00:25:03;;;;;;;12.15;1.88;;;;;;;-149.78;100.00;50459.72;4789906;30;20139;-68
2022/02/18 00:27:28;;;;;;;13.38;2.33;;;;;;;-149.78;100.00;50436.25;4789770;30;20472;-68
2022/02/18 00:29:55;;;;;;;7.25;2.10;;;;;;;-149.78;100.00;50451.88;4789639;30;20102;-68
2022/02/18 00:32:21;;;;;;;7.03;1.63;;;;;;;-149.78;100.00;50487.09;4789931;30;20064;-68
2022/02/18 00:34:46;;;;;;;10.90;1.83;;;;;;;-149.78;100.00;50430.38;4789453;30;20055;-68
2022/02/18 00:37:12;;;;;;;11.43;2.35;;;;;;;-149.78;100.00;50447.97;4788352;30;20118;-68
2022/02/18 00:39:38;;;;;;;9.88;1.90;;;;;;;-149.78;100.00;50463.63;4789558;30;20071;-68
2022/02/18 00:42:04;;;;;;;12.90;2.40;;;;;;;-149.78;100.00;50471.44;4773501;30;20546;-68
2022/02/18 00:44:30;;;;;;;11.98;1.92;;;;;;;-149.78;100.00;50451.88;4789550;30;20046;-68
2022/02/18 00:46:55;;;;;;;4.55;1.50;;;;;;;-149.78;100.00;50436.25;4789396;30;20043;-68
2022/02/18 00:49:23;;;;;;;11.57;1.83;;;;;;;-149.78;100.00;50449.94;4789550;30;20097;-68
2022/02/18 00:51:48;;;;;;;10.32;1.42;;;;;;;-149.78;100.00;50432.31;4789279;30;20047;-68
2022/02/18 00:54:14;;;;;;;5.00;1.40;;;;;;;-149.78;100.00;50469.50;4789231;30;20043;-68
2022/02/18 00:56:40;;;;;;;6.35;1.30;;;;;;;-149.78;100.00;50440.16;4788940;30;20051;-68
2022/02/18 00:59:07;;;;;;;9.00;2.13;;;;;;;-149.78;100.00;50447.97;4773144;30;20133;-68
2022/02/18 01:01:33;;;;;;;8.43;1.30;;;;;;;-149.78;100.00;50447.97;4789237;30;20039;-68
2022/02/18 01:04:00;;;;;;;13.18;1.75;;;;;;;-149.78;100.00;50451.88;4789214;30;20369;-68
2022/02/18 01:06:26;;;;;;;9.27;1.13;;;;;;;-149.78;100.00;50428.41;4789083;30;20032;-68
2022/02/18 01:08:53;;;;;;;4.57;1.20;;;;;;;-149.78;100.00;50447.97;4773153;30;20043;-68
2022/02/18 01:11:20;;;;;;;11.38;1.80;;;;;;;-149.78;100.00;50467.53;4773014;30;20039;-68
2022/02/18 01:13:47;;;;;;;7.10;1.98;;;;;;;-149.78;100.00;50471.44;4789072;30;20039;-68
2022/02/18 01:16:14;;;;;;;13.00;2.10;;;;;;;-149.78;100.00;50461.66;4789048;30;20045;-68
2022/02/18 01:18:40;;;;;;;9.50;2.10;;;;;;;-149.78;100.00;50424.50;4789031;30;20039;-68
2022/02/18 01:21:06;;;;;;;8.18;1.70;;;;;;;-149.78;100.00;50455.81;4773046;30;20130;-68
2022/02/18 01:23:32;;;;;;;7.07;2.40;;;;;;;-149.78;100.00;50483.19;4787494;29;20125;-69
2022/02/18 01:26:01;;;;;;;8.60;2.08;;;;;;;-149.78;100.00;50483.19;4772701;29;20096;-68
2022/02/18 01:28:26;;;;;;;8.10;1.90;;;;;;;-149.78;100.00;50465.56;4788378;30;20031;-68
2022/02/18 01:30:52;;;;;;;10.55;2.20;;;;;;;-149.78;100.00;50451.88;4788917;30;20050;-68
2022/02/18 01:33:18;;;;;;;8.23;1.85;;;;;;;-149.78;100.00;50483.19;4788585;30;20038;-69
2022/02/18 01:35:48;;;;;;;6.68;1.60;;;;;;;-149.78;100.00;50487.09;4772731;30;20070;-68
2022/02/18 01:38:14;;;;;;;11.82;1.73;;;;;;;-149.78;100.00;50459.72;4788611;29;20047;-68
2022/02/18 01:40:40;;;;;;;6.43;1.50;;;;;;;-149.78;100.00;50467.53;4788091;29;20059;-68
2022/02/18 01:43:06;;;;;;;7.57;1.42;;;;;;;-149.78;100.00;50483.19;4788147;30;20097;-69
2022/02/18 01:45:32;;;;;;;10.50;1.50;;;;;;;-149.78;100.00;50489.03;4788056;30;20043;-69
2022/02/18 01:47:57;;;;;;;6.65;1.45;;;;;;;-149.78;100.00;50467.53;4788420;29;20035;-69
2022/02/18 01:50:23;;;;;;;5.68;2.08;;;;;;;-149.78;100.00;50459.72;4788403;30;20103;-69
2022/02/18 01:52:52;;;;;;;8.88;1.73;;;;;;;-149.78;100.00;50494.91;4788315;29;20035;-69
2022/02/18 01:55:20;;;;;;;5.03;1.38;;;;;;;-149.78;100.00;50479.28;4788407;29;20457;-69
2022/02/18 01:57:53;;;;;;;12.07;1.88;;;;;;;-149.78;100.00;50440.16;4788005;30;20392;-68
2022/02/18 02:00:26;;;;;;;6.75;1.30;;;;;;;-149.78;100.00;50471.44;4788446;29;20039;-68
2022/02/18 02:02:52;;;;;;;6.78;1.40;;;;;;;-149.78;100.00;50447.97;4788167;29;20045;-69
2022/02/18 02:05:19;;;;;;;5.20;1.33;;;;;;;-149.78;100.00;50483.19;4788379;29;20039;-68
2022/02/18 02:07:45;;;;;;;7.72;1.38;;;;;;;-149.78;100.00;50483.19;4788235;30;20106;-68
2022/02/18 02:10:13;;;;;;;7.68;1.52;;;;;;;-149.78;100.00;50487.09;4757427;30;20130;-68
2022/02/18 02:12:50;;;;;;;9.20;1.55;;;;;;;-149.78;100.00;50459.72;4771787;30;20055;-68
2022/02/18 02:15:17;;;;;;;8.65;1.70;;;;;;;-149.78;100.00;50496.88;4788281;30;20429;-68
2022/02/18 02:17:44;;;;;;;7.35;1.45;;;;;;;-149.78;100.00;50465.56;4772143;30;20040;-68
2022/02/18 02:20:11;;;;;;;6.97;1.58;;;;;;;-149.78;100.00;50467.53;4788267;29;20444;-68
2022/02/18 02:22:38;;;;;;;7.13;1.58;;;;;;;-149.78;100.00;50436.25;4772029;30;20118;-68
2022/02/18 02:25:05;;;;;;;11.70;1.83;;;;;;;-149.78;100.00;50475.34;4772120;30;20047;-69
2022/02/18 02:27:31;;;;;;;13.93;2.13;;;;;;;-149.78;100.00;50475.34;4788055;30;20044;-69
2022/02/18 02:29:57;;;;;;;11.80;2.22;;;;;;;-149.78;100.00;50479.28;4788133;30;20035;-69
2022/02/18 02:32:23;;;;;;;13.52;1.85;;;;;;;-149.78;100.00;50487.09;4762131;30;20048;-69
2022/02/18 02:34:48;;;;;;;5.20;1.42;;;;;;;-149.78;100.00;50432.31;4785724;30;20039;-69
2022/02/18 02:37:15;;;;;;;8.70;2.00;;;;;;;-149.78;100.00;50514.47;4780942;30;20468;-69
2022/02/18 02:39:41;;;;;;;11.43;2.00;;;;;;;-149.78;100.00;50463.63;4784951;29;20039;-69
2022/02/18 02:42:07;;;;;;;12.93;2.67;;;;;;;-149.78;100.00;50451.88;4795711;29;20067;-69
2022/02/18 02:44:34;;;;;;;7.38;2.10;;;;;;;-149.78;100.00;50459.72;4791416;29;20172;-69
2022/02/18 02:47:00;;;;;;;8.63;2.42;;;;;;;-149.78;100.00;50467.53;4790025;29;20046;-69
2022/02/18 02:49:26;;;;;;;13.95;2.80;;;;;;;-149.78;100.00;50463.63;4809470;29;20042;-69
2022/02/18 02:51:51;;;;;;;16.42;3.03;;;;;;;-149.78;100.00;50467.53;4809562;29;20152;-69
2022/02/18 02:54:17;;;;;;;11.23;2.70;;;;;;;-149.78;100.00;50491.00;4803634;29;20372;-69
2022/02/18 02:56:43;;;;;;;15.13;2.65;;;;;;;-149.78;100.00;50467.53;4799598;29;20039;-69
2022/02/18 02:59:09;;;;;;;12.80;2.38;;;;;;;-149.78;100.00;50471.44;4776211;30;20169;-70
2022/02/18 03:01:35;;;;;;;10.98;2.72;;;;;;;-149.78;100.00;50479.28;4790021;29;20496;-68
2022/02/18 03:04:01;;;;;;;8.07;2.22;;;;;;;-149.78;100.00;50459.72;4791174;29;20046;-69
2022/02/18 03:06:26;;;;;;;9.70;1.80;;;;;;;-149.78;100.00;50487.09;4775190;30;20058;-69
2022/02/18 03:08:52;;;;;;;10.13;2.08;;;;;;;-149.78;100.00;50483.19;4791157;29;20059;-69
2022/02/18 03:11:21;;;;;;;12.32;1.80;;;;;;;-149.78;100.00;50483.19;4790832;29;20043;-69
2022/02/18 03:13:50;;;;;;;12.13;1.85;;;;;;;-149.78;100.00;50455.81;4809114;29;20133;-69
2022/02/18 03:16:18;;;;;;;10.98;1.45;;;;;;;-149.78;100.00;50487.09;4808939;29;20131;-69
2022/02/18 03:18:44;;;;;;;13.35;1.83;;;;;;;-149.78;100.00;50471.44;4808910;29;20094;-69
2022/02/18 03:21:11;;;;;;;9.68;2.45;;;;;;;-149.78;100.00;50487.09;4808992;29;20046;-70
2022/02/18 03:23:37;;;;;;;8.75;1.40;;;;;;;-149.78;100.00;50467.53;4808797;29;20039;-69
2022/02/18 03:26:07;;;;;;;4.43;1.58;;;;;;;-149.78;100.00;50483.19;4808920;29;20449;-70
2022/02/18 03:28:35;;;;;;;6.63;1.33;;;;;;;-149.78;100.00;50471.44;4793000;29;20039;-69
2022/02/18 03:31:04;;;;;;;15.75;2.25;;;;;;;-149.78;100.00;50471.44;4808634;29;20560;-70
2022/02/18 03:33:30;;;;;;;15.45;1.90;;;;;;;-149.78;100.00;50483.19;4802525;29;20091;-70
2022/02/18 03:35:58;;;;;;;14.30;2.30;;;;;;;-149.78;100.00;50487.09;4790708;30;20047;-69
2022/02/18 03:38:25;;;;;;;18.20;2.20;;;;;;;-149.78;100.00;50467.53;4790561;30;20051;-70
2022/02/18 03:40:51;;;;;;;10.65;2.25;;;;;;;-149.78;100.00;50473.41;4790592;30;20039;-70
2022/02/18 03:43:16;;;;;;;10.77;2.60;;;;;;;-149.78;100.00;50447.97;4790476;30;20043;-69
2022/02/18 03:45:42;;;;;;;14.02;3.33;;;;;;;-149.78;100.00;50483.19;4797568;29;20049;-69
2022/02/18 03:48:07;;;;;;;8.80;2.38;;;;;;;-149.78;100.00;50471.44;4777302;29;20039;-69
2022/02/18 03:50:33;;;;;;;13.00;2.95;;;;;;;-149.78;100.00;50475.34;4808251;29;20087;-69
2022/02/18 03:52:59;;;;;;;10.02;3.35;;;;;;;-149.78;100.00;50483.19;4792209;29;20117;-70
2022/02/18 03:55:25;;;;;;;12.63;2.42;;;;;;;-149.78;100.00;50494.91;4808395;29;20175;-70
2022/02/18 03:57:50;;;;;;;14.10;2.70;;;;;;;-149.78;100.00;50489.03;4792145;29;20050;-69
2022/02/18 04:00:16;;;;;;;8.25;2.40;;;;;;;-149.78;100.00;50447.97;4775877;29;20035;-69
2022/02/18 04:02:42;;;;;;;7.28;2.42;;;;;;;-149.78;100.00;50491.00;4789933;29;20132;-70
2022/02/18 04:05:08;;;;;;;7.75;2.67;;;;;;;-149.78;100.00;50479.28;4774074;30;20130;-70
2022/02/18 04:07:34;;;;;;;10.40;2.72;;;;;;;-149.78;100.00;50475.34;4774069;30;20043;-70
2022/02/18 04:09:59;;;;;;;10.77;2.50;;;;;;;-149.78;100.00;50504.69;4773981;30;20552;-69
2022/02/18 04:12:25;;;;;;;4.72;2.10;;;;;;;-149.78;100.00;50475.34;4782966;29;20058;-70
2022/02/18 04:14:53;;;;;;;8.25;2.13;;;;;;;-149.78;100.00;50475.34;4789722;30;20043;-70
2022/02/18 04:17:18;;;;;;;7.18;2.08;;;;;;;-149.78;100.00;50479.28;4773672;30;20044;-70
2022/02/18 04:19:44;;;;;;;4.07;1.92;;;;;;;-149.78;100.00;50455.81;4789932;29;20158;-69
2022/02/18 04:22:09;;;;;;;7.25;2.25;;;;;;;-149.78;100.00;50491.00;4788752;30;20040;-69
2022/02/18 04:24:35;;;;;;;4.78;2.30;;;;;;;-149.78;100.00;50498.81;4773787;30;20047;-69
2022/02/18 04:27:01;;;;;;;8.27;2.00;;;;;;;-149.78;100.00;50479.28;4789903;30;20045;-70
2022/02/18 04:29:26;;;;;;;3.33;1.70;;;;;;;-149.78;100.00;50463.63;4773600;30;20472;-69
2022/02/18 04:31:52;;;;;;;7.32;2.00;;;;;;;-149.78;100.00;50467.53;4789706;30;20096;-70
2022/02/18 04:34:18;;;;;;;5.90;1.88;;;;;;;-149.78;100.00;50479.28;4789739;30;20043;-69
2022/02/18 04:36:44;;;;;;;6.53;2.08;;;;;;;-149.78;100.00;50483.19;4782657;30;20093;-70
2022/02/18 04:39:10;;;;;;;4.13;2.13;;;;;;;-149.78;100.00;50508.59;4789474;30;20040;-69
2022/02/18 04:41:38;;;;;;;4.80;1.63;;;;;;;-149.78;100.00;50475.34;4789391;30;20472;-69
2022/02/18 04:44:05;;;;;;;5.63;2.40;;;;;;;-149.78;100.00;50485.13;4789538;29;20043;-70
2022/02/18 04:46:31;;;;;;;4.32;1.95;;;;;;;-149.78;100.00;50487.09;4789143;30;20464;-69
2022/02/18 04:48:57;;;;;;;3.75;2.38;;;;;;;-149.78;100.00;50463.63;4773306;30;20050;-69
2022/02/18 04:51:24;;;;;;;3.20;2.00;;;;;;;-149.78;100.00;50491.00;4788024;30;20435;-69
2022/02/18 04:53:49;;;;;;;5.28;1.90;;;;;;;-149.78;100.00;50447.97;4789385;29;20032;-70
2022/02/18 04:56:15;;;;;;;6.35;2.45;;;;;;;-149.78;100.00;50449.94;4789228;30;20046;-69
2022/02/18 04:58:41;;;;;;;4.07;2.10;;;;;;;-149.78;100.00;50463.63;4789203;29;20158;-70
2022/02/18 05:01:09;;;;;;;7.55;2.55;;;;;;;-149.78;100.00;50487.09;4789370;30;20096;-70
2022/02/18 05:03:35;;;;;;;6.90;2.67;;;;;;;-149.78;100.00;50496.88;4772336;30;20043;-69
2022/02/18 05:06:05;;;;;;;5.38;2.33;;;;;;;-149.78;100.00;50440.16;4789352;30;20039;-70
2022/02/18 05:08:31;;;;;;;7.50;2.70;;;;;;;-149.78;100.00;50487.09;4789191;29;20119;-69
2022/02/18 05:10:57;;;;;;;4.30;2.58;;;;;;;-149.78;100.00;50494.91;4788982;30;20075;-70
2022/02/18 05:13:23;;;;;;;8.00;3.30;;;;;;;-149.78;100.00;50500.78;4788890;30;20058;-69
2022/02/18 05:15:48;;;;;;;10.55;3.15;;;;;;;-149.78;100.00;50494.91;4789066;30;20043;-66
2022/02/18 05:18:15;;;;;;;7.15;3.22;;;;;;;-149.78;100.00;50451.88;4772944;30;20361;-69
2022/02/18 05:20:40;;;;;;;12.07;3.15;;;;;;;-149.78;100.00;50502.75;4788854;30;20047;-69
2022/02/18 05:23:06;;;;;;;4.30;2.47;;;;;;;-149.78;100.00;50436.25;4788923;29;20043;-69
2022/02/18 05:25:32;;;;;;;4.18;2.03;;;;;;;-149.78;100.00;50459.72;4788827;29;20122;-69
2022/02/18 05:27:58;;;;;;;4.85;2.42;;;;;;;-149.78;100.00;50479.28;4772793;30;20564;-70
2022/02/18 05:30:24;;;;;;;6.32;2.35;;;;;;;-149.78;100.00;50463.63;4788801;30;20218;-69
2022/02/18 05:32:50;;;;;;;6.60;3.95;;;;;;;-149.78;100.00;50463.63;4788877;30;20400;-69
2022/02/18 05:35:16;;;;;;;5.47;2.80;;;;;;;-149.78;100.00;50455.81;4788626;29;20132;-69
2022/02/18 05:37:41;;;;;;;8.35;3.15;;;;;;;-149.78;100.00;50477.31;4772536;30;20406;-69
2022/02/18 05:40:08;;;;;;;4.90;2.70;;;;;;;-149.78;100.00;50483.19;4788659;29;20035;-70
2022/02/18 05:42:33;;;;;;;6.93;3.08;;;;;;;-149.78;100.00;50475.34;4788642;30;20081;-70
2022/02/18 05:44:59;;;;;;;8.73;3.38;;;;;;;-149.78;100.00;50494.91;4788126;29;20126;-70
2022/02/18 05:47:24;;;;;;;6.63;3.08;;;;;;;-149.78;100.00;50447.97;4788488;29;20123;-70
2022/02/18 05:49:50;;;;;;;5.65;3.42;;;;;;;-149.78;100.00;50451.88;4788686;29;20448;-69
2022/02/18 05:52:15;;;;;;;10.93;4.20;;;;;;;-149.78;100.00;50449.94;4788609;30;20046;-69
2022/02/18 05:54:41;;;;;;;12.05;4.05;;;;;;;-149.78;100.00;50440.16;4788390;29;20047;-70
2022/02/18 05:57:07;;;;;;;8.48;3.13;;;;;;;-149.78;100.00;50471.44;4788391;30;20047;-70
2022/02/18 05:59:33;;;;;;;6.70;3.20;;;;;;;-149.78;100.00;50483.19;4772273;30;20078;-70
2022/02/18 06:01:59;;;;;;;5.05;2.65;;;;;;;-149.78;100.00;50457.75;4788371;30;20605;-70
2022/02/18 06:04:25;;;;;;;3.30;2.05;;;;;;;-149.78;100.00;50449.94;4788318;29;20043;-70
2022/02/18 06:06:50;;;;;;;2.33;1.30;;;;;;;-149.78;100.00;50498.81;4787799;29;20050;-70
2022/02/18 06:09:16;;;;;;;2.13;0.90;;;;;;;-149.78;100.00;50475.34;4772117;29;20526;-70
2022/02/18 06:11:42;;;;;;;1.70;0.77;;;;;;;-149.78;100.00;50440.16;4786919;30;20054;-70
2022/02/18 06:14:08;;;;;;;1.15;0.90;;;;;;;-149.78;100.00;50471.44;4788251;29;20050;-70
2022/02/18 06:16:34;;;;;;;1.65;0.90;;;;;;;-149.78;100.00;50440.16;4772024;30;20464;-70
2022/02/18 06:19:03;;;;;;;1.98;1.05;;;;;;;-149.78;100.00;50428.41;4788130;29;20078;-70
2022/02/18 06:21:30;;;;;;;2.25;0.82;;;;;;;-149.78;100.00;50473.41;4788039;29;20039;-70
2022/02/18 06:23:55;;;;;;;3.30;1.00;;;;;;;-149.78;100.00;50426.47;4786611;30;20048;-68
2022/02/18 06:26:21;;;;;;;4.75;0.82;;;;;;;-149.78;100.00;50412.78;4777619;30;20047;-68
2022/02/18 06:28:47;;;;;;;4.78;0.77;;;;;;;-149.78;100.00;50447.97;4781918;29;20036;-68
2022/02/18 06:31:13;;;;;;;3.33;0.98;;;;;;;-149.78;100.00;50412.78;4780231;30;20123;-68
2022/02/18 06:33:38;;;;;;;4.10;0.80;;;;;;;-149.78;100.00;50434.28;4779039;30;20043;-68
2022/02/18 06:36:04;;;;;;;1.92;0.65;;;;;;;-149.78;100.00;50440.16;4774214;30;20055;-68
2022/02/18 06:38:31;;;;;;;6.28;0.90;;;;;;;-149.78;100.00;50459.72;4775445;29;20039;-68
2022/02/18 06:40:56;;;;;;;4.07;0.80;;;;;;;-149.78;100.00;50424.50;4776607;30;20035;-68
2022/02/18 06:43:22;;;;;;;4.85;0.82;;;;;;;-149.78;100.00;50473.41;4776330;30;20037;-68
2022/02/18 06:45:48;;;;;;;5.07;0.95;;;;;;;-149.78;100.00;50467.53;4778273;29;20046;-68
2022/02/18 06:48:14;;;;;;;4.97;0.90;;;;;;;-149.78;100.00;50467.53;4775721;29;20039;-68
2022/02/18 06:50:40;;;;;;;2.42;0.88;;;;;;;-149.78;100.00;50404.94;4771715;29;20043;-68
2022/02/18 06:53:07;;;;;;;2.80;0.73;;;;;;;-149.78;100.00;50436.25;4770002;30;20097;-68
2022/02/18 06:55:34;;;;;;;4.15;0.95;;;;;;;-149.78;100.00;50432.31;4773556;29;20129;-70
2022/02/18 06:58:01;;;;;;;1.55;0.90;;;;;;;-149.78;100.00;50412.78;4769605;30;20118;-70
2022/02/18 07:00:27;;;;;;;2.95;0.60;;;;;;;-149.78;100.00;50387.34;4769835;30;20044;-68
2022/02/18 07:02:54;;;;;;;3.95;0.85;;;;;;;-149.78;100.00;50422.56;4770852;30;20047;-68
2022/02/18 07:05:20;;;;;;;2.40;0.50;;;;;;;-149.78;100.00;50424.50;4770300;29;20130;-68
2022/02/18 07:07:46;;;;;;;1.85;0.63;;;;;;;-149.78;100.00;50420.59;4786964;29;20040;-69
2022/02/18 07:10:13;;;;;;;9.38;0.98;;;;;;;-149.78;100.00;50447.97;4770841;30;20070;-69
2022/02/18 07:12:41;;;;;;;9.57;1.48;;;;;;;-149.78;100.00;50467.53;4786808;30;20231;-68
2022/02/18 07:15:08;;;;;;;8.93;1.27;;;;;;;-149.78;100.00;50453.84;4787074;30;20035;-68
2022/02/18 07:17:35;;;;;;;9.02;1.25;;;;;;;-149.78;100.00;50432.31;4786782;29;20047;-69
2022/02/18 07:20:04;;;;;;;10.65;2.25;;;;;;;-149.78;100.00;50467.53;4771529;29;20043;-69
2022/02/18 07:22:29;;;;;;;9.63;1.50;;;;;;;-149.78;100.00;50424.50;4787743;30;20067;-68
2022/02/18 07:24:55;;;;;;;9.70;1.35;;;;;;;-149.78;100.00;50408.84;4771714;30;20373;-68
2022/02/18 07:27:21;;;;;;;8.82;1.67;;;;;;;-149.78;100.00;50440.16;4770444;30;20043;-68
2022/02/18 07:29:47;;;;;;;12.10;1.70;;;;;;;-149.78;100.00;50459.72;4779899;29;20042;-68
2022/02/18 07:32:13;;;;;;;9.65;1.75;;;;;;;-149.78;100.00;50459.72;4774541;30;20036;-68
2022/02/18 07:34:39;;;;;;;10.57;1.50;;;;;;;-149.78;100.00;50440.16;4781269;30;20038;-68
2022/02/18 07:37:05;;;;;;;6.70;2.10;;;;;;;-149.78;100.00;50440.16;4763647;29;20357;-68
2022/02/18 07:39:30;;;;;;;7.35;1.40;;;;;;;-149.78;100.00;50412.78;4779115;30;20372;-68
2022/02/18 07:41:56;;;;;;;2.80;1.10;;;;;;;-149.78;100.00;50457.75;4776140;30;20401;-68
2022/02/18 07:44:22;;;;;;;7.30;1.27;;;;;;;-149.78;100.00;50440.16;4784900;29;20412;-68
2022/02/18 07:46:48;;;;;;;8.82;1.17;;;;;;;-149.78;100.00;50459.72;4783978;30;20051;-68
2022/02/18 07:49:15;;;;;;;8.88;1.17;;;;;;;-149.78;100.00;50432.31;4780695;30;20411;-69
2022/02/18 07:51:41;;;;;;;13.63;2.15;;;;;;;-149.78;100.00;50432.31;4778100;30;20193;-69
2022/02/18 07:54:07;;;;;;;6.50;1.25;;;;;;;-149.78;100.00;50428.41;4772733;30;20035;-69
2022/02/18 07:56:33;;;;;;;3.75;1.48;;;;;;;-149.78;100.00;50444.06;4787244;29;20047;-69
2022/02/18 07:58:59;;;;;;;7.75;1.48;;;;;;;-149.78;100.00;50489.03;4776769;30;20385;-69
2022/02/18 08:01:24;;;;;;;3.67;1.00;;;;;;;-149.78;100.00;50404.94;4768163;30;20070;-69
2022/02/18 08:03:51;;;;;;;5.72;1.73;;;;;;;-149.78;100.00;50455.81;4776414;29;20142;-69
2022/02/18 08:06:17;;;;;;;10.10;1.73;;;;;;;-149.78;100.00;50453.84;4768652;30;20036;-69
2022/02/18 08:08:44;;;;;;;10.65;1.50;;;;;;;-149.78;100.00;50451.88;4772084;30;20097;-69
2022/02/18 08:11:10;;;;;;;8.88;1.50;;;;;;;-149.78;100.00;50475.34;4772251;30;20032;-69
2022/02/18 08:13:36;;;;;;;9.93;1.70;;;;;;;-149.78;100.00;50420.59;4775176;30;20084;-69
2022/02/18 08:16:02;;;;;;;13.23;2.00;;;;;;;-149.78;100.00;50416.69;4779512;29;20043;-69
2022/02/18 08:18:28;;;;;;;6.68;1.25;;;;;;;-149.78;100.00;50420.59;4746400;29;20524;-69
2022/02/18 08:20:53;;;;;;;7.00;1.48;;;;;;;-149.78;100.00;50434.28;4781947;30;20035;-69
2022/02/18 08:23:20;;;;;;;12.00;1.77;;;;;;;-149.78;100.00;50401.03;4774910;29;20362;-69
2022/02/18 08:25:46;;;;;;;10.40;1.90;;;;;;;-149.78;100.00;50455.81;4774982;29;20045;-68
2022/02/18 08:28:12;;;;;;;14.52;1.92;;;;;;;-149.78;100.00;50440.16;4778205;29;20492;-69
2022/02/18 08:30:38;;;;;;;22.92;2.50;;;;;;;-149.78;100.00;50389.31;4777520;29;20039;-69
2022/02/18 08:33:04;;;;;;;15.18;1.70;;;;;;;-149.78;100.00;50424.50;4763871;29;20589;-69
2022/02/18 08:35:33;;;;;;;9.27;3.28;;;;;;;-149.78;100.00;50408.84;4780507;29;20042;-69
2022/02/18 08:38:00;;;;;;;10.77;1.90;;;;;;;-149.78;100.00;50408.84;4766098;29;20048;-68
2022/02/18 08:40:26;;;;;;;11.00;2.08;;;;;;;-149.78;100.00;50436.25;4782484;29;20043;-69
2022/02/18 08:42:51;;;;;;;10.27;1.85;;;;;;;-149.78;100.00;50399.09;4770081;30;20043;-69
2022/02/18 08:45:18;;;;;;;13.93;1.83;;;;;;;-149.78;100.00;50455.81;4786854;30;20039;-68
2022/02/18 08:47:45;;;;;;;16.48;1.73;;;;;;;-149.78;100.00;50408.84;4781937;29;20042;-71
2022/02/18 08:50:11;;;;;;;9.40;1.90;;;;;;;-149.78;100.00;50358.00;4780089;29;20035;-69
2022/02/18 08:52:38;;;;;;;14.07;2.20;;;;;;;-149.78;100.00;50371.69;4776756;30;20119;-69
2022/02/18 08:55:06;;;;;;;18.67;2.17;;;;;;;-149.78;100.00;50371.69;4778247;30;20048;-69
2022/02/18 08:57:32;;;;;;;12.23;2.20;;;;;;;-149.78;100.00;50356.06;4775383;30;20096;-69
2022/02/18 08:59:58;;;;;;;16.38;2.22;;;;;;;-149.78;100.00;50369.75;4760629;30;20044;-69
2022/02/18 09:02:24;;;;;;;14.60;2.42;;;;;;;-149.78;100.00;50424.50;4779633;30;20115;-69
2022/02/18 09:04:57;;;;;;;14.52;1.83;;;;;;;-149.78;100.00;50389.31;4772586;29;20035;-69
2022/02/18 09:07:22;;;;;;;;;;;;;;;-149.78;100.00;50428.41;4778435;29;20036;-69
2022/02/18 09:09:51;;;;;;;23.60;2.35;;;;;;;-149.78;100.00;50408.84;4774180;29;19967;-71
2022/02/18 09:12:18;;;;;;;14.30;2.25;;;;;;;-149.78;100.00;50424.50;4770892;29;20052;-69
2022/02/18 09:14:44;;;;;;;15.35;2.47;;;;;;;-149.78;100.00;50404.94;4773458;29;20574;-69
2022/02/18 09:17:10;;;;;;;19.05;2.10;;;;;;;-149.78;100.00;50440.16;4772530;29;20069;-69
2022/02/18 09:19:36;;;;;;;16.48;2.38;;;;;;;-149.78;100.00;50428.41;4775737;29;20035;-69
2022/02/18 09:22:03;;;;;;;15.23;2.28;;;;;;;-149.78;100.00;50412.78;4759280;29;20043;-69
2022/02/18 09:24:28;;;;;;;12.80;2.28;;;;;;;-149.78;100.00;50440.16;4774480;29;20050;-69
2022/02/18 09:26:54;;;;;;;22.77;2.75;;;;;;;-149.78;100.00;50463.63;4777333;29;20042;-69
2022/02/18 09:29:20;;;;;;;16.38;2.70;;;;;;;-149.78;100.00;50416.69;4780408;29;20039;-69
2022/02/18 09:31:46;;;;;;;21.33;3.17;;;;;;;-149.78;100.00;50479.28;4781849;29;20039;-69
2022/02/18 09:34:13;;;;;;;13.80;2.30;;;;;;;-149.78;100.00;50463.63;4778730;29;20130;-69
2022/02/18 09:36:39;;;;;;;7.18;1.63;;;;;;;-149.78;100.00;50428.41;4768176;30;20047;-70
2022/02/18 09:39:06;;;;;;;11.10;2.30;;;;;;;-149.78;100.00;50471.44;4776373;29;20043;-70
2022/02/18 09:41:34;;;;;;;6.93;1.50;;;;;;;-149.78;100.00;50412.78;4772196;29;20032;-70
2022/02/18 09:44:02;;;;;;;7.57;1.20;;;;;;;-149.78;100.00;50467.53;4778315;29;20481;-70
2022/02/18 09:46:29;;;;;;;9.40;1.45;;;;;;;-149.78;100.00;50455.81;4762593;30;20032;-67
2022/02/18 09:48:54;;;;;;;10.05;1.35;;;;;;;-149.78;100.00;50428.41;4776438;29;20040;-70
2022/02/18 09:51:21;;;;;;;9.07;1.60;;;;;;;-149.78;100.00;50483.19;4771441;29;20043;-69
2022/02/18 09:53:47;;;;;;;11.18;1.38;;;;;;;-149.78;100.00;50436.25;4771807;29;20422;-69
2022/02/18 09:56:15;;;;;;;11.52;1.55;;;;;;;-149.78;100.00;50455.81;4779607;29;20514;-69
2022/02/18 09:58:41;;;;;;;5.25;1.27;;;;;;;-149.78;100.00;50401.03;4794875;29;20035;-70
2022/02/18 10:01:07;;;;;;;11.68;1.50;;;;;;;-149.78;100.00;50467.53;4764523;30;20043;-69
2022/02/18 10:03:33;;;;;;;10.60;2.35;;;;;;;-149.78;100.00;50416.69;4774725;30;20819;-69
2022/02/18 10:05:59;;;;;;;10.40;1.65;;;;;;;-149.78;100.00;50469.50;4792642;29;20059;-68
2022/02/18 10:08:26;;;;;;;11.02;1.70;;;;;;;-149.78;100.00;50451.88;4802385;29;20622;-69
2022/02/18 10:10:58;;;;;;;9.48;2.17;;;;;;;-149.78;100.00;50416.69;4795846;29;20050;-70
2022/02/18 10:13:47;;;;;;;11.80;1.90;;;;;;;-149.78;100.00;50426.47;4782786;29;20548;-69
2022/02/18 10:16:24;;;;;;;17.17;4.82;;;;;;;-149.78;100.00;50403.00;4789004;29;20486;-70
2022/02/18 10:18:52;;;;;;;13.07;1.98;;;;;;;-149.78;100.00;50428.41;4785725;29;20062;-69
2022/02/18 10:21:23;;;;;;;9.93;1.80;;;;;;;-149.78;100.00;50369.75;4794678;29;20039;-69
2022/02/18 10:23:49;;;;;;;10.30;1.80;;;;;;;-149.78;100.00;50385.38;4802952;29;20484;-69
2022/02/18 10:26:16;;;;;;;7.05;1.65;;;;;;;-149.78;100.00;50354.09;4775681;29;20034;-69
2022/02/18 10:28:55;;;;;;;10.45;2.03;;;;;;;-149.78;100.00;50367.78;4794388;29;20169;-68
2022/02/18 10:31:20;;;;;;;10.30;2.40;;;;;;;-149.78;100.00;50393.22;4775992;29;20039;-69
2022/02/18 10:34:09;;;;;;;12.82;2.10;;;;;;;-149.78;100.00;50428.41;4775804;29;20051;-69
2022/02/18 10:36:39;;;;;;;9.52;2.05;;;;;;;-149.78;100.00;50453.84;4778328;29;20064;-68
2022/02/18 10:39:33;;;;;;;13.70;1.98;;;;;;;-149.78;100.00;50428.41;4774061;29;20128;-69
2022/02/18 10:42:01;;;;;;;11.32;2.50;;;;;;;-149.78;100.00;50440.16;4786512;29;20506;-69
2022/02/18 10:44:29;;;;;;;17.33;2.97;;;;;;;-149.78;100.00;50432.31;4800352;29;20740;-69
2022/02/18 10:46:55;;;;;;;12.80;2.40;;;;;;;-149.78;100.00;50451.88;4787650;29;20467;-69
2022/02/18 10:49:32;;;;;;;18.33;2.92;;;;;;;-149.78;100.00;50451.88;4790535;29;20035;-69
2022/02/18 10:52:10;;;;;;;20.58;3.78;;;;;;;-149.78;100.00;50447.97;4787218;29;20047;-70
2022/02/18 10:54:35;;;;;;;22.05;3.50;;;;;;;-149.78;100.00;50455.81;4795280;29;20035;-69
2022/02/18 10:57:18;;;;;;;18.67;3.33;;;;;;;-149.78;100.00;50463.63;4796486;29;20099;-69
2022/02/18 10:59:45;;;;;;;21.63;3.67;;;;;;;-149.78;100.00;50451.88;4777373;29;20027;-68
2022/02/18 11:02:10;;;;;;;15.43;3.10;;;;;;;-149.78;100.00;50447.97;4771402;29;20034;-69
2022/02/18 11:04:36;;;;;;;29.65;3.00;;;;;;;-149.78;100.00;50432.31;4791526;29;20471;-70